• Join FlightAware (Why Join?)
  • Login
  • US Flag GB Flag 
22:12 EDT


 

Airport Tracker/Info


-or-


 

Live Flight TrackerFlight Track Log ✈ EJA982 ✈ 28-Apr-2013 ✈ KLAS - KSJC

Flight Track Log - Related Links

Times and Time Zones

All times are in EDT time to prevent confusion due to time zone crossing. See the EJA982 flight status page for this flight to view local times or setup timezone preferences in your user account.

Time Position Orientation Groundspeed Altitude Reporting Facility
EDT Latitude Longitude Course Direction KTS MPH feet Rate Location/Type
17:26 36.0725 -115.1719 208° Southwest 191 220 2,900  Level Los Angeles Center
17:27 36.0158 -115.2092 208° Southwest 224 258 5,600 2,160 Climbing Los Angeles Center
17:28 35.9950 -115.2469 236° Southwest 259 298 6,600 1,260 Climbing Los Angeles Center
17:28 35.9783 -115.2853 242° Southwest 268 308 6,900 540 Climbing Los Angeles Center
17:29 35.9539 -115.3250 233° Southwest 266 306 7,200 1,260 Climbing Los Angeles Center
17:29 35.9267 -115.3553 222° Southwest 263 303 8,200 2,880 Climbing Los Angeles Center
17:30 35.8992 -115.3889 225° Southwest 268 308 10,200 3,540 Climbing Los Angeles Center
17:30 35.8825 -115.4308 244° Southwest 291 335 11,800 3,660 Climbing Los Angeles Center
17:31 35.8850 -115.4867 273° West 300 345 14,000 2,340 Climbing Los Angeles Center
17:32 35.8903 -115.6217 273° West 351 404 16,400 1,980 Climbing Los Angeles Center
17:33 35.8925 -115.8003 271° West 402 463 18,600 1,980 Climbing Los Angeles Center
17:34 35.9006 -115.9422 274° West 416 479 20,600 1,920 Climbing Los Angeles Center
17:35 35.9669 -116.0544 306° West 408 470 22,600 1,980 Climbing Los Angeles Center
17:36 36.0369 -116.1825 304° West 426 490 24,800 1,980 Climbing Los Angeles Center
17:37 36.0794 -116.3228 291° West 429 494 26,800 1,800 Climbing Los Angeles Center
17:38 36.1219 -116.4625 291° West 433 498 28,600 1,740 Climbing Los Angeles Center
17:39 36.1667 -116.6078 291° West 444 511 30,400 1,320 Climbing Los Angeles Center
17:40 36.2086 -116.7553 289° West 451 519 31,400 720 Climbing Los Angeles Center
17:41 36.2550 -116.9117 290° West 464 534 32,000 600 Climbing Los Angeles Center
17:42 36.3139 -117.1100 290° West 486 559 32,700 960 Climbing Los Angeles Center
17:43 36.3617 -117.2747 290° West 498 573 34,000 600 Climbing Los Angeles Center
17:44 36.4094 -117.4383 290° West 505 581 34,000  Level Los Angeles Center
17:45 36.4578 -117.6056 290° West 512 589 34,000  Level Los Angeles Center
17:46 36.5047 -117.7714 289° West 511 588 34,000  Level Los Angeles Center
17:48 36.5522 -117.9364 290° West 511 588 34,000  Level Los Angeles Center
17:49 36.6081 -118.1356 289° West 511 588 34,000  Level Los Angeles Center
17:49 36.6200 -118.1783 289° West 511 588 34,000  Level Oakland Center
17:50 36.6550 -118.3014 290° West 510 587 34,000  Level Los Angeles Center
17:51 36.7019 -118.4689 289° West 512 589 34,000  Level Los Angeles Center
17:51 36.7236 -118.5403 291° West 527 606 34,000  Level Oakland Center
17:52 36.7700 -118.7086 289° West 518 596 34,000 -180 Level Oakland Center
17:53 36.8167 -118.8767 289° West 517 595 33,700 -660 Descending Oakland Center
17:54 36.8608 -119.0436 288° West 516 594 32,700 -1,020 Descending Oakland Center
17:55 36.9056 -119.2092 289° West 503 579 31,700 -1,020 Descending Oakland Center
17:56 36.9517 -119.3811 289° West 530 610 30,700 -1,020 Descending Oakland Center
17:57 36.9964 -119.5503 288° West 516 594 29,700 -1,200 Descending Oakland Center
17:58 37.0497 -119.7522 288° West 511 588 28,300 -1,620 Descending Oakland Center
17:59 37.0842 -119.8911 287° West 496 571 26,500 -2,400 Descending Oakland Center
18:00 37.1342 -120.0817 288° West 474 545 23,400 -3,000 Descending Oakland Center
18:01 37.1731 -120.2356 288° West 464 534 20,400 -3,000 Descending Oakland Center
18:02 37.2167 -120.3833 290° West 435 501 17,400 -2,520 Descending Northern Cal TRACON
18:03 37.1833 -120.5333 254° West 495 570 15,400 -2,460 Descending Northern Cal TRACON
18:04 37.1667 -120.6667 261° West 408 470 12,500 -2,400 Descending Northern Cal TRACON
18:05 37.1333 -120.8167 254° West 414 476 10,700 -1,260 Descending Northern Cal TRACON
18:06 37.1000 -120.9500 253° West 404 465 10,000 -360 Descending Northern Cal TRACON
18:07 37.1000 -121.0833 270° West 411 473 10,000  Level Northern Cal TRACON
18:08 37.0833 -121.2333 262° West 410 472 10,000  Level Northern Cal TRACON
18:09 37.0667 -121.3667 261° West 393 452 10,000 -300 Level Northern Cal TRACON
18:10 37.0500 -121.4833 260° West 295 339 9,400 -1,020 Descending Northern Cal TRACON
18:11 37.0500 -121.5833 270° West 293 337 8,000 -1,320 Descending Northern Cal TRACON
18:11 37.0542 -121.5939 296° West 307 353 7,800 -1,380 Descending Oakland Center
18:12 37.1136 -121.6556 320° Northwest 281 323 6,300 -1,620 Descending Oakland Center
18:13 37.1667 -121.7000 326° Northwest 268 308 5,000 -1,320 Descending Northern Cal TRACON
18:13 37.1675 -121.7161 274° West 266 306 5,000 -1,140 Level Oakland Center
18:15 37.2181 -121.7758 317° Northwest 258 297 3,500 -1,320 Descending Oakland Center
18:16 37.2661 -121.8272 320° Northwest 241 277 2,300 -1,080 Descending Oakland Center
18:17 37.3089 -121.8714 321° Northwest 215 247 1,300 -960 Descending Oakland Center
18:18 37.3419 -121.9106 317° Northwest 180 207 400 -900 Descending Oakland Center
18:20 37.3500 -121.9167 North  Level FlightAware Approximate